createdAt,value
2018-04-29T00:00:07.536Z,16.57
2018-04-29T00:02:35.982Z,17.83
2018-04-29T00:05:03.452Z,18.23
2018-04-29T00:07:30.905Z,17.43
2018-04-29T00:09:58.398Z,19.30
2018-04-29T00:12:25.863Z,18.00
2018-04-29T00:14:53.323Z,18.93
2018-04-29T00:17:20.796Z,18.23
2018-04-29T00:19:48.854Z,17.37
2018-04-29T00:22:16.319Z,18.33
2018-04-29T00:24:43.762Z,17.93
2018-04-29T00:27:11.376Z,19.37
2018-04-29T00:29:40.419Z,19.17
2018-04-29T00:32:08.640Z,18.53
2018-04-29T00:34:36.095Z,19.13
2018-04-29T00:37:03.551Z,19.30
2018-04-29T00:39:31.598Z,19.33
2018-04-29T00:41:59.062Z,19.80
2018-04-29T00:44:27.540Z,19.10
2018-04-29T00:46:55.024Z,19.47
2018-04-29T00:49:24.086Z,18.13
2018-04-29T00:52:03.454Z,19.47
2018-04-29T00:54:31.025Z,18.43
2018-04-29T00:56:58.676Z,18.63
2018-04-29T00:59:26.327Z,19.73
2018-04-29T01:01:54.318Z,18.80
2018-04-29T01:04:23.027Z,19.40
2018-04-29T01:06:52.251Z,19.27
2018-04-29T01:09:19.810Z,19.33
2018-04-29T01:11:48.115Z,19.13
2018-04-29T01:14:15.786Z,18.93
2018-04-29T01:16:43.252Z,18.60
2018-04-29T01:19:10.776Z,18.33
2018-04-29T01:21:38.342Z,18.43
2018-04-29T01:24:05.813Z,18.43
2018-04-29T01:26:33.286Z,19.67
2018-04-29T01:29:00.792Z,19.67
2018-04-29T01:31:28.369Z,18.60
2018-04-29T01:33:55.856Z,17.90
2018-04-29T01:36:23.315Z,18.43
2018-04-29T01:38:50.763Z,18.17
2018-04-29T01:41:18.288Z,19.67
2018-04-29T01:43:45.743Z,19.33
2018-04-29T01:46:13.230Z,18.73
2018-04-29T01:48:40.736Z,18.03
2018-04-29T01:51:08.203Z,17.77
2018-04-29T01:53:35.782Z,19.03
2018-04-29T01:56:03.237Z,19.37
2018-04-29T01:58:30.704Z,19.73
2018-04-29T02:00:58.256Z,19.73
2018-04-29T02:03:25.808Z,19.53
2018-04-29T02:05:53.393Z,19.60
2018-04-29T02:08:20.871Z,19.47
2018-04-29T02:10:48.325Z,20.57
2018-04-29T02:13:15.773Z,21.37
2018-04-29T02:15:43.421Z,19.00
2018-04-29T02:18:10.878Z,18.83
2018-04-29T02:20:38.542Z,19.17
2018-04-29T02:23:06.771Z,18.80
2018-04-29T02:25:34.389Z,19.00
2018-04-29T02:28:02.627Z,17.93
2018-04-29T02:30:30.127Z,18.30
2018-04-29T02:32:58.378Z,19.37
2018-04-29T02:35:26.733Z,18.40
2018-04-29T02:37:54.198Z,18.30
2018-04-29T02:40:21.730Z,17.83
2018-04-29T02:42:49.338Z,18.13
2018-04-29T02:45:16.780Z,18.03
2018-04-29T02:47:44.260Z,17.73
2018-04-29T02:50:11.931Z,19.30
2018-04-29T02:52:39.558Z,18.60
2018-04-29T02:55:07.080Z,18.57
2018-04-29T02:57:34.544Z,17.60
2018-04-29T03:00:02.069Z,18.47
2018-04-29T03:02:29.512Z,18.73
2018-04-29T03:04:57.779Z,17.47
2018-04-29T03:07:25.242Z,18.43
2018-04-29T03:09:53.578Z,18.83
2018-04-29T03:12:21.112Z,19.87
2018-04-29T03:14:48.573Z,18.70
2018-04-29T03:17:16.031Z,18.63
2018-04-29T03:19:43.635Z,18.33
2018-04-29T03:22:11.278Z,18.23
2018-04-29T03:24:38.812Z,18.90
2018-04-29T03:27:06.265Z,19.03
2018-04-29T03:29:33.864Z,18.90
2018-04-29T03:32:01.324Z,19.17
2018-04-29T03:34:28.789Z,18.47
2018-04-29T03:36:56.266Z,18.37
2018-04-29T03:39:24.092Z,18.40
2018-04-29T03:41:51.578Z,16.90
2018-04-29T03:44:19.195Z,15.03
2018-04-29T03:46:46.662Z,13.30
2018-04-29T03:49:14.325Z,11.67
2018-04-29T03:51:41.988Z,11.20
2018-04-29T03:54:09.505Z,11.00
2018-04-29T03:56:37.804Z,10.30
2018-04-29T03:59:17.241Z,10.13
2018-04-29T04:04:48.818Z,9.13
2018-04-29T04:07:16.467Z,8.80
2018-04-29T04:09:43.959Z,8.23
2018-04-29T04:12:11.398Z,8.50
2018-04-29T04:14:39.063Z,9.17
2018-04-29T04:17:06.589Z,9.37
2018-04-29T04:19:34.117Z,9.47
2018-04-29T04:22:02.344Z,9.80
2018-04-29T04:24:29.790Z,10.67
2018-04-29T04:26:57.353Z,11.20
2018-04-29T04:29:24.912Z,10.00
2018-04-29T04:31:52.483Z,11.90
2018-04-29T04:34:20.014Z,11.20
2018-04-29T04:36:47.493Z,11.93
2018-04-29T04:39:15.063Z,10.83
2018-04-29T04:41:42.530Z,12.33
2018-04-29T04:44:10.162Z,11.53
2018-04-29T04:46:37.715Z,11.67
2018-04-29T04:49:05.284Z,12.77
2018-04-29T04:51:33.570Z,12.00
2018-04-29T04:54:02.221Z,11.87
2018-04-29T04:56:29.896Z,11.73
2018-04-29T04:58:57.352Z,11.50
2018-04-29T05:01:25.027Z,11.47
2018-04-29T05:03:52.666Z,11.37
2018-04-29T05:06:20.123Z,11.60
2018-04-29T05:08:47.719Z,11.33
2018-04-29T05:11:15.164Z,12.47
2018-04-29T05:13:42.847Z,11.67
2018-04-29T05:16:10.385Z,11.50
2018-04-29T05:18:39.355Z,11.33
2018-04-29T05:21:06.844Z,11.77
2018-04-29T05:23:35.197Z,11.53
2018-04-29T05:26:02.853Z,11.63
2018-04-29T05:28:30.384Z,12.30
2018-04-29T05:30:57.981Z,11.60
2018-04-29T05:33:25.416Z,11.57
2018-04-29T05:35:53.027Z,11.43
2018-04-29T05:38:21.263Z,12.33
2018-04-29T05:40:48.828Z,11.47
2018-04-29T05:43:16.481Z,11.70
2018-04-29T05:45:44.166Z,11.37
2018-04-29T05:48:11.604Z,11.00
2018-04-29T05:50:39.274Z,11.20
2018-04-29T05:53:07.032Z,10.63
2018-04-29T05:55:34.505Z,11.43
2018-04-29T05:58:02.007Z,11.57
2018-04-29T06:00:29.644Z,11.83
2018-04-29T06:02:57.039Z,12.27
2018-04-29T06:05:24.500Z,11.67
2018-04-29T06:07:51.936Z,11.67
2018-04-29T06:10:19.542Z,12.30
2018-04-29T06:12:47.199Z,13.63
2018-04-29T06:15:14.667Z,12.80
2018-04-29T06:17:42.126Z,14.07
2018-04-29T06:20:09.588Z,15.57
2018-04-29T06:22:38.050Z,16.47
2018-04-29T06:25:09.271Z,16.93
2018-04-29T06:27:36.714Z,19.80
2018-04-29T06:30:04.252Z,20.97
2018-04-29T06:32:32.612Z,19.30
2018-04-29T06:35:00.862Z,21.40
2018-04-29T06:37:28.319Z,21.40
2018-04-29T06:39:57.610Z,21.33
2018-04-29T06:42:25.085Z,22.50
2018-04-29T06:44:54.290Z,22.80
2018-04-29T06:47:22.543Z,22.83
2018-04-29T06:49:50.066Z,22.77
2018-04-29T06:52:17.514Z,22.53
2018-04-29T06:54:44.965Z,22.50
2018-04-29T06:57:12.473Z,23.40
2018-04-29T06:59:39.998Z,25.67
2018-04-29T07:02:07.460Z,25.33
2018-04-29T07:04:34.907Z,24.73
2018-04-29T07:07:02.373Z,24.73
2018-04-29T07:09:30.158Z,25.00
2018-04-29T07:11:58.616Z,24.50
2018-04-29T07:14:26.073Z,26.80
2018-04-29T07:16:53.548Z,26.50
2018-04-29T07:19:22.712Z,26.47
2018-04-29T07:21:50.303Z,26.87
2018-04-29T07:24:17.782Z,27.00
2018-04-29T07:26:45.294Z,28.50
2018-04-29T07:29:12.814Z,26.70
2018-04-29T07:31:41.056Z,26.87
2018-04-29T07:34:09.728Z,26.60
2018-04-29T07:36:37.691Z,27.00
2018-04-29T07:39:10.127Z,26.50
2018-04-29T07:41:39.750Z,25.93
2018-04-29T07:44:07.445Z,26.47
2018-04-29T07:46:35.779Z,25.27
2018-04-29T07:49:05.110Z,25.23
2018-04-29T07:51:38.892Z,25.43
2018-04-29T07:54:06.357Z,26.07
2018-04-29T07:56:34.842Z,25.20
2018-04-29T07:59:02.863Z,25.87
2018-04-29T08:01:30.482Z,24.77
2018-04-29T08:03:58.032Z,25.63
2018-04-29T08:06:25.499Z,25.33
2018-04-29T08:08:53.090Z,25.30
2018-04-29T08:11:20.590Z,25.30
2018-04-29T08:13:53.690Z,25.17
2018-04-29T08:18:54.562Z,26.03
2018-04-29T08:21:22.819Z,25.07
2018-04-29T08:23:50.958Z,25.47
2018-04-29T08:26:19.697Z,25.07
2018-04-29T08:28:47.299Z,25.13
2018-04-29T08:31:14.783Z,24.53
2018-04-29T08:33:42.236Z,25.10
2018-04-29T08:36:09.791Z,25.20
2018-04-29T08:38:37.172Z,23.90
2018-04-29T08:41:04.959Z,25.13
2018-04-29T08:43:33.000Z,24.43
2018-04-29T08:46:00.555Z,23.47
2018-04-29T08:48:28.131Z,24.33
2018-04-29T08:50:56.543Z,24.57
2018-04-29T08:53:25.562Z,23.17
2018-04-29T08:55:53.156Z,23.57
2018-04-29T08:58:20.622Z,24.13
2018-04-29T09:00:48.968Z,25.20
2018-04-29T09:03:16.422Z,25.73
2018-04-29T09:05:44.917Z,25.27
2018-04-29T09:08:12.365Z,24.70
2018-04-29T09:10:39.952Z,24.60
2018-04-29T09:13:08.113Z,25.07
2018-04-29T09:15:35.675Z,24.60
2018-04-29T09:18:03.144Z,26.17
2018-04-29T09:20:31.367Z,25.70
2018-04-29T09:22:58.848Z,25.20
2018-04-29T09:25:26.388Z,25.83
2018-04-29T09:27:53.857Z,26.33
2018-04-29T09:30:21.626Z,26.80
2018-04-29T09:32:49.289Z,26.43
2018-04-29T09:35:16.774Z,26.50
2018-04-29T09:37:48.790Z,27.37
2018-04-29T09:40:18.960Z,25.70
2018-04-29T09:42:47.176Z,26.13
2018-04-29T09:45:14.756Z,27.30
2018-04-29T09:47:50.339Z,26.90
2018-04-29T09:52:55.602Z,27.53
2018-04-29T09:55:24.741Z,27.43
2018-04-29T09:57:52.327Z,27.20
2018-04-29T10:00:25.465Z,28.07
2018-04-29T10:02:52.983Z,29.20
2018-04-29T10:05:20.447Z,31.30
2018-04-29T10:07:48.008Z,30.60
2018-04-29T10:10:16.368Z,29.90
2018-04-29T10:12:43.812Z,30.53
2018-04-29T10:15:11.263Z,30.73
2018-04-29T10:17:41.344Z,32.23
2018-04-29T10:20:09.395Z,31.50
2018-04-29T10:22:37.627Z,31.70
2018-04-29T10:25:05.228Z,31.47
2018-04-29T10:27:32.748Z,32.83
2018-04-29T10:30:00.885Z,32.30
2018-04-29T10:32:36.211Z,33.30
2018-04-29T10:37:46.297Z,32.37
2018-04-29T10:40:16.121Z,32.60
2018-04-29T10:42:54.317Z,32.40
2018-04-29T10:45:22.177Z,33.07
2018-04-29T10:47:54.152Z,33.10
2018-04-29T10:50:24.136Z,32.27
2018-04-29T10:52:52.036Z,30.33
2018-04-29T10:55:19.541Z,31.50
2018-04-29T10:57:48.691Z,31.17
2018-04-29T11:00:18.685Z,31.00
2018-04-29T11:02:46.891Z,30.23
2018-04-29T11:05:14.464Z,30.70
2018-04-29T11:07:41.993Z,30.17
2018-04-29T11:10:09.451Z,29.33
2018-04-29T11:12:37.017Z,28.23
2018-04-29T11:15:04.508Z,29.00
2018-04-29T11:17:32.753Z,29.53
2018-04-29T11:20:05.837Z,30.17
2018-04-29T11:22:33.289Z,28.50
2018-04-29T11:25:00.869Z,28.33
2018-04-29T11:27:28.335Z,28.10
2018-04-29T11:29:55.864Z,27.30
2018-04-29T11:32:23.317Z,26.30
2018-04-29T11:34:51.791Z,23.67
2018-04-29T11:37:19.247Z,24.20
2018-04-29T11:39:47.649Z,24.07
2018-04-29T11:42:15.134Z,23.73
2018-04-29T11:44:42.627Z,23.07
2018-04-29T11:47:10.115Z,23.63
2018-04-29T11:49:37.705Z,24.17
2018-04-29T11:52:06.674Z,23.73
2018-04-29T11:54:34.892Z,23.47
2018-04-29T11:57:02.359Z,22.87
2018-04-29T11:59:30.278Z,22.53
2018-04-29T12:01:57.796Z,24.17
2018-04-29T12:04:25.226Z,23.63
2018-04-29T12:06:52.669Z,21.97
2018-04-29T12:09:21.131Z,20.90
2018-04-29T12:11:49.487Z,20.63
2018-04-29T12:14:16.971Z,20.97
2018-04-29T12:16:44.425Z,19.10
2018-04-29T12:19:11.868Z,19.83
2018-04-29T12:21:39.333Z,18.53
2018-04-29T12:24:06.868Z,20.47
2018-04-29T12:26:34.341Z,20.17
2018-04-29T12:29:02.729Z,21.07
2018-04-29T12:31:30.379Z,19.17
2018-04-29T12:33:57.947Z,20.37
2018-04-29T12:36:26.228Z,19.73
2018-04-29T12:38:53.694Z,17.70
2018-04-29T12:41:21.928Z,18.63
2018-04-29T12:43:49.380Z,17.97
2018-04-29T12:46:17.675Z,16.87
2018-04-29T12:48:45.300Z,17.20
2018-04-29T12:51:12.986Z,17.80
2018-04-29T12:53:41.150Z,17.97
2018-04-29T12:56:08.712Z,17.93
2018-04-29T12:58:36.302Z,18.60
2018-04-29T13:01:03.766Z,18.70
2018-04-29T13:03:31.293Z,17.80
2018-04-29T13:05:59.781Z,17.77
2018-04-29T13:08:27.268Z,17.37
2018-04-29T13:10:55.668Z,16.92
2018-04-29T13:13:23.154Z,16.90
2018-04-29T13:15:50.630Z,17.87
2018-04-29T13:18:18.414Z,16.33
2018-04-29T13:20:45.878Z,17.70
2018-04-29T13:23:13.504Z,17.10
2018-04-29T13:25:40.995Z,17.13
2018-04-29T13:28:08.625Z,16.73
2018-04-29T13:30:36.179Z,16.37
2018-04-29T13:33:03.742Z,17.40
2018-04-29T13:35:31.200Z,16.27
2018-04-29T13:37:58.657Z,15.57
2018-04-29T13:40:26.189Z,15.70
2018-04-29T13:42:53.763Z,15.57
2018-04-29T13:45:21.252Z,14.70
2018-04-29T13:47:49.032Z,13.97
2018-04-29T13:50:16.575Z,14.73
2018-04-29T13:52:44.203Z,13.63
2018-04-29T13:55:11.895Z,14.13
2018-04-29T13:57:39.353Z,14.97
2018-04-29T14:00:13.387Z,15.32
2018-04-29T14:02:40.894Z,14.93
2018-04-29T14:05:09.124Z,15.43
2018-04-29T14:07:36.576Z,15.37
2018-04-29T14:10:04.173Z,14.80
2018-04-29T14:12:31.649Z,14.73
2018-04-29T14:15:00.613Z,15.03
2018-04-29T14:17:28.084Z,15.97
2018-04-29T14:19:55.713Z,16.60
2018-04-29T14:22:23.194Z,15.77
2018-04-29T14:24:50.748Z,15.80
2018-04-29T14:27:18.234Z,16.50
2018-04-29T14:29:45.892Z,16.63
2018-04-29T14:32:14.224Z,16.60
2018-04-29T14:34:41.673Z,17.73
2018-04-29T14:37:09.152Z,17.53
2018-04-29T14:39:37.873Z,19.60
2018-04-29T14:42:07.176Z,17.83
2018-04-29T14:44:38.331Z,20.50
2018-04-29T14:47:06.372Z,20.47
2018-04-29T14:49:34.250Z,19.97
2018-04-29T14:52:03.867Z,19.10
2018-04-29T14:54:31.379Z,20.83
2018-04-29T14:56:58.852Z,21.20
2018-04-29T14:59:28.035Z,20.70
2018-04-29T15:01:55.530Z,21.63
2018-04-29T15:04:23.053Z,21.90
2018-04-29T15:06:50.538Z,23.70
2018-04-29T15:09:18.047Z,22.03
2018-04-29T15:11:45.635Z,22.83
2018-04-29T15:14:13.103Z,23.50
2018-04-29T15:16:41.829Z,22.73
2018-04-29T15:19:09.412Z,24.17
2018-04-29T15:21:36.871Z,22.73
2018-04-29T15:24:04.352Z,24.10
2018-04-29T15:26:31.923Z,23.10
2018-04-29T15:28:59.466Z,22.70
2018-04-29T15:31:26.958Z,23.60
2018-04-29T15:33:55.183Z,22.43
2018-04-29T15:36:22.643Z,24.13
2018-04-29T15:38:52.517Z,22.70
2018-04-29T15:41:20.096Z,22.53
2018-04-29T15:43:49.703Z,23.57
2018-04-29T15:46:17.183Z,22.90
2018-04-29T15:48:44.843Z,24.40
2018-04-29T15:51:12.334Z,23.93
2018-04-29T15:53:39.940Z,22.77
2018-04-29T15:56:07.526Z,22.27
2018-04-29T15:58:34.980Z,22.50
2018-04-29T16:01:02.456Z,22.23
2018-04-29T16:03:30.064Z,24.00
2018-04-29T16:05:58.259Z,23.27
2018-04-29T16:08:25.724Z,22.67
2018-04-29T16:10:53.235Z,20.90
2018-04-29T16:13:20.787Z,21.60
2018-04-29T16:15:48.234Z,20.30
2018-04-29T16:18:15.741Z,19.30
2018-04-29T16:20:43.323Z,20.73
2018-04-29T16:23:10.863Z,19.20
2018-04-29T16:25:38.444Z,18.90
2018-04-29T16:28:06.099Z,19.80
2018-04-29T16:30:34.176Z,20.20
2018-04-29T16:33:01.839Z,21.63
2018-04-29T16:35:31.598Z,20.03
2018-04-29T16:37:59.223Z,21.57
2018-04-29T16:40:26.863Z,21.97
2018-04-29T16:42:55.112Z,22.27
2018-04-29T16:45:22.661Z,22.73
2018-04-29T16:47:50.128Z,23.27
2018-04-29T16:50:17.770Z,23.27
2018-04-29T16:52:45.240Z,21.70
2018-04-29T16:55:12.704Z,21.37
2018-04-29T16:57:41.013Z,20.73
2018-04-29T17:00:09.302Z,19.23
2018-04-29T17:02:38.122Z,20.07
2018-04-29T17:05:07.076Z,20.17
2018-04-29T17:07:34.642Z,19.30
2018-04-29T17:10:04.938Z,19.67
2018-04-29T17:12:33.033Z,18.87
2018-04-29T17:15:01.294Z,18.50
2018-04-29T17:17:30.408Z,19.50
2018-04-29T17:19:59.266Z,18.27
2018-04-29T17:22:26.782Z,18.60
2018-04-29T17:24:54.978Z,19.43
2018-04-29T17:27:22.654Z,18.80
2018-04-29T17:29:50.325Z,18.53
2018-04-29T17:32:19.297Z,18.90
2018-04-29T17:34:49.972Z,20.47
2018-04-29T17:37:17.573Z,18.60
2018-04-29T17:39:45.187Z,18.07
2018-04-29T17:42:12.719Z,19.57
2018-04-29T17:47:17.382Z,18.67
2018-04-29T17:49:46.386Z,18.47
2018-04-29T17:52:14.057Z,19.27
2018-04-29T17:54:41.641Z,18.77
2018-04-29T17:57:09.263Z,17.33
2018-04-29T17:59:37.604Z,18.80
2018-04-29T18:02:05.341Z,17.57
2018-04-29T18:04:32.827Z,17.33
2018-04-29T18:07:00.381Z,18.20
2018-04-29T18:09:29.422Z,17.20
2018-04-29T18:11:56.939Z,16.87
2018-04-29T18:14:24.425Z,16.33
2018-04-29T18:16:53.961Z,16.90
2018-04-29T18:19:24.473Z,16.53
2018-04-29T18:21:52.072Z,15.83
2018-04-29T18:24:19.791Z,15.47
2018-04-29T18:26:47.413Z,15.33
2018-04-29T18:29:15.080Z,14.37
2018-04-29T18:31:42.520Z,14.63
2018-04-29T18:34:10.067Z,14.90
2018-04-29T18:36:37.877Z,15.20
2018-04-29T18:39:05.531Z,14.60
2018-04-29T18:41:33.295Z,13.57
2018-04-29T18:44:00.838Z,12.87
2018-04-29T18:46:28.299Z,14.53
2018-04-29T18:48:56.744Z,12.80
2018-04-29T18:51:24.398Z,13.17
2018-04-29T18:53:52.096Z,13.67
2018-04-29T18:56:19.608Z,12.17
2018-04-29T18:58:47.407Z,11.87
2018-04-29T19:01:15.078Z,11.23
2018-04-29T19:03:42.625Z,11.10
2018-04-29T19:06:10.184Z,11.70
2018-04-29T19:08:40.410Z,12.23
2018-04-29T19:13:40.816Z,12.73
2018-04-29T19:16:09.223Z,12.20
2018-04-29T19:18:36.859Z,13.77
2018-04-29T19:21:04.323Z,12.97
2018-04-29T19:23:32.045Z,11.87
2018-04-29T19:26:00.106Z,11.43
2018-04-29T19:28:27.637Z,11.43
2018-04-29T19:30:55.334Z,12.53
2018-04-29T19:33:24.457Z,12.30
2018-04-29T19:35:52.128Z,12.13
2018-04-29T19:38:19.729Z,12.07
2018-04-29T19:40:48.033Z,13.23
2018-04-29T19:43:16.542Z,13.67
2018-04-29T19:45:44.017Z,12.70
2018-04-29T19:48:11.493Z,11.30
2018-04-29T19:50:39.815Z,11.73
2018-04-29T19:53:07.298Z,12.73
2018-04-29T19:55:34.867Z,12.73
2018-04-29T19:58:03.707Z,13.27
2018-04-29T20:00:31.173Z,14.17
2018-04-29T20:02:58.651Z,14.57
2018-04-29T20:05:26.209Z,14.17
2018-04-29T20:07:53.805Z,15.10
2018-04-29T20:10:21.279Z,14.83
2018-04-29T20:12:48.918Z,14.40
2018-04-29T20:15:17.719Z,15.53
2018-04-29T20:17:51.728Z,15.73
2018-04-29T20:20:19.279Z,14.50
2018-04-29T20:22:46.904Z,16.10
2018-04-29T20:25:14.577Z,16.47
2018-04-29T20:27:42.259Z,15.63
2018-04-29T20:30:09.755Z,16.10
2018-04-29T20:32:55.164Z,16.63
2018-04-29T20:35:22.637Z,16.40
2018-04-29T20:37:50.104Z,15.57
2018-04-29T20:40:17.635Z,16.87
2018-04-29T20:42:45.218Z,17.17
2018-04-29T20:45:13.526Z,16.77
2018-04-29T20:47:41.679Z,17.63
2018-04-29T20:50:09.173Z,16.60
2018-04-29T20:52:36.640Z,17.10
2018-04-29T20:55:04.085Z,15.80
2018-04-29T20:57:31.557Z,15.57
2018-04-29T20:59:59.923Z,16.27
2018-04-29T21:02:27.352Z,14.70
2018-04-29T21:04:54.980Z,12.63
2018-04-29T21:07:22.504Z,12.80
2018-04-29T21:09:50.116Z,11.93
2018-04-29T21:12:19.061Z,11.53
2018-04-29T21:14:47.330Z,11.10
2018-04-29T21:17:14.941Z,10.10
2018-04-29T21:19:42.613Z,11.23
2018-04-29T21:22:10.138Z,11.20
2018-04-29T21:24:37.707Z,9.93
2018-04-29T21:27:05.183Z,11.40
2018-04-29T21:29:32.802Z,10.80
2018-04-29T21:32:00.460Z,10.50
2018-04-29T21:34:27.993Z,10.10
2018-04-29T21:36:55.440Z,10.63
2018-04-29T21:39:23.069Z,10.30
2018-04-29T21:41:51.374Z,10.47
2018-04-29T21:44:18.986Z,11.07
2018-04-29T21:46:46.441Z,11.60
2018-04-29T21:49:14.115Z,11.60
2018-04-29T21:51:41.763Z,11.27
2018-04-29T21:54:09.614Z,10.77
2018-04-29T21:56:37.174Z,11.30
2018-04-29T21:59:04.751Z,10.90
2018-04-29T22:01:32.405Z,10.93
2018-04-29T22:04:00.053Z,11.60
2018-04-29T22:06:27.520Z,11.40
2018-04-29T22:08:55.180Z,12.27
2018-04-29T22:11:23.599Z,13.50
2018-04-29T22:13:51.922Z,11.83
2018-04-29T22:16:19.382Z,12.67
2018-04-29T22:18:48.294Z,11.70
2018-04-29T22:21:15.951Z,12.57
2018-04-29T22:23:43.568Z,12.93
2018-04-29T22:26:11.071Z,10.97
2018-04-29T22:28:38.845Z,11.40
2018-04-29T22:31:06.623Z,12.77
2018-04-29T22:33:35.002Z,11.93
2018-04-29T22:36:03.347Z,10.70
2018-04-29T22:38:31.024Z,12.27
2018-04-29T22:40:58.675Z,11.47
2018-04-29T22:43:26.412Z,11.37
2018-04-29T22:45:53.823Z,10.90
2018-04-29T22:48:21.292Z,11.60
2018-04-29T22:50:48.892Z,10.90
2018-04-29T22:53:16.429Z,11.27
2018-04-29T22:55:44.024Z,11.37
2018-04-29T22:58:12.980Z,11.03
2018-04-29T23:00:40.591Z,11.53
2018-04-29T23:03:08.044Z,12.63
2018-04-29T23:05:38.152Z,12.30
2018-04-29T23:08:05.662Z,12.70
2018-04-29T23:10:33.343Z,11.53
2018-04-29T23:13:00.913Z,12.37
2018-04-29T23:15:28.507Z,12.07
2018-04-29T23:17:56.746Z,12.00
2018-04-29T23:20:24.519Z,12.60
2018-04-29T23:22:51.992Z,13.10
2018-04-29T23:25:24.627Z,13.57
2018-04-29T23:27:52.208Z,13.83
2018-04-29T23:30:19.692Z,13.60
2018-04-29T23:32:48.050Z,13.87
2018-04-29T23:35:16.305Z,13.80
2018-04-29T23:37:43.873Z,14.50
2018-04-29T23:40:11.419Z,14.93
2018-04-29T23:42:39.007Z,15.07
2018-04-29T23:45:06.654Z,14.47
2018-04-29T23:47:34.282Z,15.23
2018-04-29T23:50:01.723Z,15.00
2018-04-29T23:52:29.173Z,14.37
2018-04-29T23:54:57.510Z,15.20
2018-04-29T23:57:25.171Z,14.87
2018-04-29T23:59:52.830Z,14.50
